sensor_id;sensor_type;location;lat;lon;timestamp;P1;durP1;ratioP1;P2;durP2;ratioP2
59770;SDS011;45649;53.014;6.600;2023-03-11T00:01:40;4.83;;;2.20;;
59770;SDS011;45649;53.014;6.600;2023-03-11T00:04:06;4.00;;;2.10;;
59770;SDS011;45649;53.014;6.600;2023-03-11T00:06:35;3.83;;;2.30;;
59770;SDS011;45649;53.014;6.600;2023-03-11T00:09:02;4.37;;;2.20;;
59770;SDS011;45649;53.014;6.600;2023-03-11T00:11:29;5.77;;;2.17;;
59770;SDS011;45649;53.014;6.600;2023-03-11T00:13:55;5.77;;;2.50;;
59770;SDS011;45649;53.014;6.600;2023-03-11T00:16:21;5.10;;;2.40;;
59770;SDS011;45649;53.014;6.600;2023-03-11T00:18:50;7.03;;;2.33;;
59770;SDS011;45649;53.014;6.600;2023-03-11T00:21:16;7.40;;;2.60;;
59770;SDS011;45649;53.014;6.600;2023-03-11T00:23:44;6.47;;;2.60;;
59770;SDS011;45649;53.014;6.600;2023-03-11T00:26:10;6.67;;;2.13;;
59770;SDS011;45649;53.014;6.600;2023-03-11T00:28:36;4.73;;;2.50;;
59770;SDS011;45649;53.014;6.600;2023-03-11T00:31:03;5.40;;;2.20;;
59770;SDS011;45649;53.014;6.600;2023-03-11T00:33:29;5.97;;;2.40;;
59770;SDS011;45649;53.014;6.600;2023-03-11T00:35:55;5.73;;;2.60;;
59770;SDS011;45649;53.014;6.600;2023-03-11T00:38:21;7.47;;;2.33;;
59770;SDS011;45649;53.014;6.600;2023-03-11T00:40:47;4.90;;;2.07;;
59770;SDS011;45649;53.014;6.600;2023-03-11T00:43:14;4.47;;;2.17;;
59770;SDS011;45649;53.014;6.600;2023-03-11T00:45:40;6.63;;;2.43;;
59770;SDS011;45649;53.014;6.600;2023-03-11T00:48:07;6.63;;;2.47;;
59770;SDS011;45649;53.014;6.600;2023-03-11T00:50:34;5.83;;;2.40;;
59770;SDS011;45649;53.014;6.600;2023-03-11T00:53:01;7.33;;;2.23;;
59770;SDS011;45649;53.014;6.600;2023-03-11T00:55:29;7.20;;;2.33;;
59770;SDS011;45649;53.014;6.600;2023-03-11T00:57:56;7.13;;;2.67;;
59770;SDS011;45649;53.014;6.600;2023-03-11T01:00:24;6.13;;;2.47;;
59770;SDS011;45649;53.014;6.600;2023-03-11T01:02:52;6.17;;;2.90;;
59770;SDS011;45649;53.014;6.600;2023-03-11T01:05:19;6.30;;;2.37;;
59770;SDS011;45649;53.014;6.600;2023-03-11T01:07:45;3.83;;;2.07;;
59770;SDS011;45649;53.014;6.600;2023-03-11T01:10:11;4.53;;;2.70;;
59770;SDS011;45649;53.014;6.600;2023-03-11T01:12:38;2.63;;;1.80;;
59770;SDS011;45649;53.014;6.600;2023-03-11T01:15:04;4.20;;;2.07;;
59770;SDS011;45649;53.014;6.600;2023-03-11T01:17:31;7.33;;;2.20;;
59770;SDS011;45649;53.014;6.600;2023-03-11T01:19:57;4.23;;;2.23;;
59770;SDS011;45649;53.014;6.600;2023-03-11T01:22:23;7.77;;;2.40;;
59770;SDS011;45649;53.014;6.600;2023-03-11T01:24:49;4.37;;;2.20;;
59770;SDS011;45649;53.014;6.600;2023-03-11T01:27:15;7.47;;;2.20;;
59770;SDS011;45649;53.014;6.600;2023-03-11T01:29:41;4.47;;;2.20;;
59770;SDS011;45649;53.014;6.600;2023-03-11T01:32:09;9.03;;;2.30;;
59770;SDS011;45649;53.014;6.600;2023-03-11T01:34:35;4.90;;;2.10;;
59770;SDS011;45649;53.014;6.600;2023-03-11T01:37:01;4.07;;;2.07;;
59770;SDS011;45649;53.014;6.600;2023-03-11T01:39:28;6.70;;;2.50;;
59770;SDS011;45649;53.014;6.600;2023-03-11T01:41:54;4.83;;;2.00;;
59770;SDS011;45649;53.014;6.600;2023-03-11T01:44:20;4.17;;;1.90;;
59770;SDS011;45649;53.014;6.600;2023-03-11T01:49:19;5.63;;;1.90;;
59770;SDS011;45649;53.014;6.600;2023-03-11T01:51:56;1.87;;;1.70;;
59770;SDS011;45649;53.014;6.600;2023-03-11T01:54:25;2.50;;;1.73;;
59770;SDS011;45649;53.014;6.600;2023-03-11T01:56:52;5.20;;;2.00;;
59770;SDS011;45649;53.014;6.600;2023-03-11T01:59:24;2.80;;;1.87;;
59770;SDS011;45649;53.014;6.600;2023-03-11T02:02:03;4.63;;;1.60;;
59770;SDS011;45649;53.014;6.600;2023-03-11T02:04:30;3.30;;;1.90;;
59770;SDS011;45649;53.014;6.600;2023-03-11T02:06:58;4.93;;;1.80;;
59770;SDS011;45649;53.014;6.600;2023-03-11T02:09:24;6.53;;;1.90;;
59770;SDS011;45649;53.014;6.600;2023-03-11T02:11:51;4.53;;;1.73;;
59770;SDS011;45649;53.014;6.600;2023-03-11T02:14:17;4.90;;;1.60;;
59770;SDS011;45649;53.014;6.600;2023-03-11T02:16:44;2.63;;;1.93;;
59770;SDS011;45649;53.014;6.600;2023-03-11T02:19:14;3.80;;;1.80;;
59770;SDS011;45649;53.014;6.600;2023-03-11T02:21:43;4.20;;;1.90;;
59770;SDS011;45649;53.014;6.600;2023-03-11T02:24:21;4.97;;;2.10;;
59770;SDS011;45649;53.014;6.600;2023-03-11T02:27:10;2.33;;;1.80;;
59770;SDS011;45649;53.014;6.600;2023-03-11T02:29:37;4.77;;;2.23;;
59770;SDS011;45649;53.014;6.600;2023-03-11T02:32:07;2.97;;;1.87;;
59770;SDS011;45649;53.014;6.600;2023-03-11T02:34:35;4.67;;;2.00;;
59770;SDS011;45649;53.014;6.600;2023-03-11T02:37:05;2.60;;;1.60;;
59770;SDS011;45649;53.014;6.600;2023-03-11T02:39:32;3.77;;;1.80;;
59770;SDS011;45649;53.014;6.600;2023-03-11T02:41:59;2.60;;;1.80;;
59770;SDS011;45649;53.014;6.600;2023-03-11T02:44:27;4.43;;;1.77;;
59770;SDS011;45649;53.014;6.600;2023-03-11T02:46:53;6.83;;;1.83;;
59770;SDS011;45649;53.014;6.600;2023-03-11T02:49:19;3.73;;;1.70;;
59770;SDS011;45649;53.014;6.600;2023-03-11T02:51:46;6.17;;;1.90;;
59770;SDS011;45649;53.014;6.600;2023-03-11T02:54:13;5.27;;;1.47;;
59770;SDS011;45649;53.014;6.600;2023-03-11T02:56:39;2.40;;;1.40;;
59770;SDS011;45649;53.014;6.600;2023-03-11T02:59:05;3.27;;;1.97;;
59770;SDS011;45649;53.014;6.600;2023-03-11T03:04:07;3.87;;;1.87;;
59770;SDS011;45649;53.014;6.600;2023-03-11T03:06:34;2.00;;;1.77;;
59770;SDS011;45649;53.014;6.600;2023-03-11T03:09:00;3.47;;;1.80;;
59770;SDS011;45649;53.014;6.600;2023-03-11T03:11:26;2.27;;;1.90;;
59770;SDS011;45649;53.014;6.600;2023-03-11T03:13:52;3.03;;;1.53;;
59770;SDS011;45649;53.014;6.600;2023-03-11T03:16:18;3.33;;;1.73;;
59770;SDS011;45649;53.014;6.600;2023-03-11T03:18:44;3.00;;;1.50;;
59770;SDS011;45649;53.014;6.600;2023-03-11T03:21:10;2.03;;;1.67;;
59770;SDS011;45649;53.014;6.600;2023-03-11T03:23:37;1.67;;;1.43;;
59770;SDS011;45649;53.014;6.600;2023-03-11T03:26:03;3.17;;;1.80;;
59770;SDS011;45649;53.014;6.600;2023-03-11T03:28:29;4.13;;;2.00;;
59770;SDS011;45649;53.014;6.600;2023-03-11T03:30:55;3.23;;;1.57;;
59770;SDS011;45649;53.014;6.600;2023-03-11T03:33:27;3.47;;;1.60;;
59770;SDS011;45649;53.014;6.600;2023-03-11T03:35:53;2.30;;;1.63;;
59770;SDS011;45649;53.014;6.600;2023-03-11T03:38:19;2.57;;;1.87;;
59770;SDS011;45649;53.014;6.600;2023-03-11T03:40:46;4.40;;;1.60;;
59770;SDS011;45649;53.014;6.600;2023-03-11T03:43:12;2.97;;;1.80;;
59770;SDS011;45649;53.014;6.600;2023-03-11T03:45:38;1.60;;;1.50;;
59770;SDS011;45649;53.014;6.600;2023-03-11T03:48:04;2.13;;;1.67;;
59770;SDS011;45649;53.014;6.600;2023-03-11T03:50:31;2.40;;;1.73;;
59770;SDS011;45649;53.014;6.600;2023-03-11T03:52:57;1.97;;;1.63;;
59770;SDS011;45649;53.014;6.600;2023-03-11T03:55:23;3.47;;;1.90;;
59770;SDS011;45649;53.014;6.600;2023-03-11T03:57:49;2.57;;;1.60;;
59770;SDS011;45649;53.014;6.600;2023-03-11T04:00:15;2.93;;;2.03;;
59770;SDS011;45649;53.014;6.600;2023-03-11T04:02:42;2.60;;;1.70;;
59770;SDS011;45649;53.014;6.600;2023-03-11T04:05:08;3.00;;;2.00;;
59770;SDS011;45649;53.014;6.600;2023-03-11T04:07:34;3.03;;;2.20;;
59770;SDS011;45649;53.014;6.600;2023-03-11T04:10:01;6.07;;;1.80;;
59770;SDS011;45649;53.014;6.600;2023-03-11T04:12:27;3.60;;;1.87;;
59770;SDS011;45649;53.014;6.600;2023-03-11T04:14:53;5.37;;;2.00;;
59770;SDS011;45649;53.014;6.600;2023-03-11T04:17:19;5.33;;;1.80;;
59770;SDS011;45649;53.014;6.600;2023-03-11T04:19:45;4.40;;;1.87;;
59770;SDS011;45649;53.014;6.600;2023-03-11T04:22:11;2.80;;;1.90;;
59770;SDS011;45649;53.014;6.600;2023-03-11T04:24:37;2.97;;;1.80;;
59770;SDS011;45649;53.014;6.600;2023-03-11T04:27:04;1.77;;;1.63;;
59770;SDS011;45649;53.014;6.600;2023-03-11T04:29:30;4.87;;;2.07;;
59770;SDS011;45649;53.014;6.600;2023-03-11T04:31:56;2.33;;;1.87;;
59770;SDS011;45649;53.014;6.600;2023-03-11T04:34:22;3.50;;;2.10;;
59770;SDS011;45649;53.014;6.600;2023-03-11T04:36:50;4.70;;;1.70;;
59770;SDS011;45649;53.014;6.600;2023-03-11T04:39:16;3.17;;;1.77;;
59770;SDS011;45649;53.014;6.600;2023-03-11T04:41:42;4.30;;;1.90;;
59770;SDS011;45649;53.014;6.600;2023-03-11T04:44:08;4.77;;;1.70;;
59770;SDS011;45649;53.014;6.600;2023-03-11T04:46:34;4.43;;;1.83;;
59770;SDS011;45649;53.014;6.600;2023-03-11T04:49:01;2.70;;;1.80;;
59770;SDS011;45649;53.014;6.600;2023-03-11T04:51:27;4.70;;;1.90;;
59770;SDS011;45649;53.014;6.600;2023-03-11T04:53:53;4.23;;;2.10;;
59770;SDS011;45649;53.014;6.600;2023-03-11T04:56:19;3.80;;;1.80;;
59770;SDS011;45649;53.014;6.600;2023-03-11T04:58:45;4.90;;;2.10;;
59770;SDS011;45649;53.014;6.600;2023-03-11T05:01:11;2.17;;;1.87;;
59770;SDS011;45649;53.014;6.600;2023-03-11T05:03:37;3.50;;;2.00;;
59770;SDS011;45649;53.014;6.600;2023-03-11T05:06:04;2.23;;;1.80;;
59770;SDS011;45649;53.014;6.600;2023-03-11T05:08:30;2.97;;;1.77;;
59770;SDS011;45649;53.014;6.600;2023-03-11T05:10:56;4.37;;;2.20;;
59770;SDS011;45649;53.014;6.600;2023-03-11T05:13:22;4.97;;;1.90;;
59770;SDS011;45649;53.014;6.600;2023-03-11T05:15:48;1.97;;;1.80;;
59770;SDS011;45649;53.014;6.600;2023-03-11T05:18:14;3.30;;;1.80;;
59770;SDS011;45649;53.014;6.600;2023-03-11T05:20:41;5.20;;;2.03;;
59770;SDS011;45649;53.014;6.600;2023-03-11T05:23:07;3.27;;;1.80;;
59770;SDS011;45649;53.014;6.600;2023-03-11T05:25:33;5.27;;;1.70;;
59770;SDS011;45649;53.014;6.600;2023-03-11T05:27:59;1.90;;;1.80;;
59770;SDS011;45649;53.014;6.600;2023-03-11T05:30:25;3.00;;;1.80;;
59770;SDS011;45649;53.014;6.600;2023-03-11T05:32:52;2.27;;;2.07;;
59770;SDS011;45649;53.014;6.600;2023-03-11T05:35:18;7.10;;;2.07;;
59770;SDS011;45649;53.014;6.600;2023-03-11T05:37:44;3.43;;;2.00;;
59770;SDS011;45649;53.014;6.600;2023-03-11T05:40:14;5.53;;;1.90;;
59770;SDS011;45649;53.014;6.600;2023-03-11T05:42:40;4.47;;;2.00;;
59770;SDS011;45649;53.014;6.600;2023-03-11T05:45:06;2.27;;;1.80;;
59770;SDS011;45649;53.014;6.600;2023-03-11T05:47:32;5.40;;;2.40;;
59770;SDS011;45649;53.014;6.600;2023-03-11T05:49:59;3.27;;;2.13;;
59770;SDS011;45649;53.014;6.600;2023-03-11T05:52:25;3.23;;;2.10;;
59770;SDS011;45649;53.014;6.600;2023-03-11T05:54:51;4.30;;;2.20;;
59770;SDS011;45649;53.014;6.600;2023-03-11T05:57:18;2.73;;;1.93;;
59770;SDS011;45649;53.014;6.600;2023-03-11T05:59:44;2.10;;;2.00;;
59770;SDS011;45649;53.014;6.600;2023-03-11T06:02:10;2.23;;;1.90;;
59770;SDS011;45649;53.014;6.600;2023-03-11T06:04:37;5.97;;;2.20;;
59770;SDS011;45649;53.014;6.600;2023-03-11T06:07:03;4.07;;;2.20;;
59770;SDS011;45649;53.014;6.600;2023-03-11T06:09:29;2.67;;;1.90;;
59770;SDS011;45649;53.014;6.600;2023-03-11T06:11:55;5.87;;;2.10;;
59770;SDS011;45649;53.014;6.600;2023-03-11T06:14:21;2.47;;;1.80;;
59770;SDS011;45649;53.014;6.600;2023-03-11T06:16:47;2.07;;;1.80;;
59770;SDS011;45649;53.014;6.600;2023-03-11T06:19:16;5.07;;;2.33;;
59770;SDS011;45649;53.014;6.600;2023-03-11T06:21:42;3.67;;;2.20;;
59770;SDS011;45649;53.014;6.600;2023-03-11T06:24:08;2.00;;;1.70;;
59770;SDS011;45649;53.014;6.600;2023-03-11T06:26:34;2.77;;;1.90;;
59770;SDS011;45649;53.014;6.600;2023-03-11T06:29:01;3.97;;;2.00;;
59770;SDS011;45649;53.014;6.600;2023-03-11T06:31:29;4.33;;;2.30;;
59770;SDS011;45649;53.014;6.600;2023-03-11T06:33:55;5.70;;;2.20;;
59770;SDS011;45649;53.014;6.600;2023-03-11T06:36:23;3.33;;;2.60;;
59770;SDS011;45649;53.014;6.600;2023-03-11T06:38:50;3.53;;;2.30;;
59770;SDS011;45649;53.014;6.600;2023-03-11T06:41:16;5.97;;;2.30;;
59770;SDS011;45649;53.014;6.600;2023-03-11T06:43:43;3.17;;;2.20;;
59770;SDS011;45649;53.014;6.600;2023-03-11T06:46:14;2.43;;;2.00;;
59770;SDS011;45649;53.014;6.600;2023-03-11T06:48:41;4.43;;;2.20;;
59770;SDS011;45649;53.014;6.600;2023-03-11T06:51:08;4.57;;;2.43;;
59770;SDS011;45649;53.014;6.600;2023-03-11T06:53:35;2.47;;;2.27;;
59770;SDS011;45649;53.014;6.600;2023-03-11T06:56:07;5.00;;;2.33;;
59770;SDS011;45649;53.014;6.600;2023-03-11T06:58:35;3.93;;;2.70;;
59770;SDS011;45649;53.014;6.600;2023-03-11T07:01:04;3.17;;;2.60;;
59770;SDS011;45649;53.014;6.600;2023-03-11T07:03:30;4.50;;;3.00;;
59770;SDS011;45649;53.014;6.600;2023-03-11T07:05:57;8.17;;;2.80;;
59770;SDS011;45649;53.014;6.600;2023-03-11T07:08:23;3.13;;;2.10;;
59770;SDS011;45649;53.014;6.600;2023-03-11T07:13:45;4.30;;;2.40;;
59770;SDS011;45649;53.014;6.600;2023-03-11T07:16:15;6.17;;;2.60;;
59770;SDS011;45649;53.014;6.600;2023-03-11T07:18:43;6.87;;;2.30;;
59770;SDS011;45649;53.014;6.600;2023-03-11T07:21:10;3.90;;;2.43;;
59770;SDS011;45649;53.014;6.600;2023-03-11T07:23:38;3.20;;;2.20;;
59770;SDS011;45649;53.014;6.600;2023-03-11T07:26:06;2.77;;;2.10;;
59770;SDS011;45649;53.014;6.600;2023-03-11T07:28:33;5.37;;;2.37;;
59770;SDS011;45649;53.014;6.600;2023-03-11T07:30:59;2.83;;;2.10;;
59770;SDS011;45649;53.014;6.600;2023-03-11T07:33:25;6.57;;;2.57;;
59770;SDS011;45649;53.014;6.600;2023-03-11T07:35:51;8.00;;;2.20;;
59770;SDS011;45649;53.014;6.600;2023-03-11T07:38:17;3.83;;;2.10;;
59770;SDS011;45649;53.014;6.600;2023-03-11T07:40:44;3.33;;;2.40;;
59770;SDS011;45649;53.014;6.600;2023-03-11T07:43:10;4.03;;;2.60;;
59770;SDS011;45649;53.014;6.600;2023-03-11T07:45:36;4.27;;;2.40;;
59770;SDS011;45649;53.014;6.600;2023-03-11T07:48:02;7.60;;;2.60;;
59770;SDS011;45649;53.014;6.600;2023-03-11T07:50:28;3.97;;;2.23;;
59770;SDS011;45649;53.014;6.600;2023-03-11T07:52:54;5.70;;;2.10;;
59770;SDS011;45649;53.014;6.600;2023-03-11T07:55:21;4.60;;;2.50;;
59770;SDS011;45649;53.014;6.600;2023-03-11T07:57:47;5.00;;;2.23;;
59770;SDS011;45649;53.014;6.600;2023-03-11T08:00:13;3.53;;;1.97;;
59770;SDS011;45649;53.014;6.600;2023-03-11T08:02:39;2.90;;;2.23;;
59770;SDS011;45649;53.014;6.600;2023-03-11T08:05:06;4.00;;;2.10;;
59770;SDS011;45649;53.014;6.600;2023-03-11T08:07:32;3.43;;;2.10;;
59770;SDS011;45649;53.014;6.600;2023-03-11T08:09:58;5.63;;;2.10;;
59770;SDS011;45649;53.014;6.600;2023-03-11T08:12:24;3.80;;;1.90;;
59770;SDS011;45649;53.014;6.600;2023-03-11T08:14:50;3.03;;;2.00;;
59770;SDS011;45649;53.014;6.600;2023-03-11T08:17:16;3.03;;;2.10;;
59770;SDS011;45649;53.014;6.600;2023-03-11T08:19:42;3.93;;;2.30;;
59770;SDS011;45649;53.014;6.600;2023-03-11T08:22:08;2.60;;;1.93;;
59770;SDS011;45649;53.014;6.600;2023-03-11T08:24:34;4.67;;;2.20;;
59770;SDS011;45649;53.014;6.600;2023-03-11T08:27:00;5.70;;;2.60;;
59770;SDS011;45649;53.014;6.600;2023-03-11T08:29:26;4.20;;;2.03;;
59770;SDS011;45649;53.014;6.600;2023-03-11T08:31:53;3.33;;;2.30;;
59770;SDS011;45649;53.014;6.600;2023-03-11T08:34:19;4.03;;;1.93;;
59770;SDS011;45649;53.014;6.600;2023-03-11T08:36:46;6.53;;;2.43;;
59770;SDS011;45649;53.014;6.600;2023-03-11T08:39:12;3.37;;;2.30;;
59770;SDS011;45649;53.014;6.600;2023-03-11T08:41:38;4.80;;;2.90;;
59770;SDS011;45649;53.014;6.600;2023-03-11T08:44:04;6.90;;;2.27;;
59770;SDS011;45649;53.014;6.600;2023-03-11T08:46:31;6.43;;;2.63;;
59770;SDS011;45649;53.014;6.600;2023-03-11T08:48:58;4.50;;;2.57;;
59770;SDS011;45649;53.014;6.600;2023-03-11T08:51:24;4.27;;;2.33;;
59770;SDS011;45649;53.014;6.600;2023-03-11T08:53:51;5.20;;;2.30;;
59770;SDS011;45649;53.014;6.600;2023-03-11T08:56:17;3.33;;;2.00;;
59770;SDS011;45649;53.014;6.600;2023-03-11T08:58:44;4.67;;;2.27;;
59770;SDS011;45649;53.014;6.600;2023-03-11T09:01:10;3.20;;;2.20;;
59770;SDS011;45649;53.014;6.600;2023-03-11T09:03:37;3.33;;;2.50;;
59770;SDS011;45649;53.014;6.600;2023-03-11T09:06:04;3.60;;;2.03;;
59770;SDS011;45649;53.014;6.600;2023-03-11T09:08:31;6.43;;;2.70;;
59770;SDS011;45649;53.014;6.600;2023-03-11T09:10:57;4.47;;;2.27;;
59770;SDS011;45649;53.014;6.600;2023-03-11T09:13:23;6.03;;;2.43;;
59770;SDS011;45649;53.014;6.600;2023-03-11T09:15:49;2.43;;;2.23;;
59770;SDS011;45649;53.014;6.600;2023-03-11T09:18:16;3.23;;;2.30;;
59770;SDS011;45649;53.014;6.600;2023-03-11T09:20:42;4.07;;;2.10;;
59770;SDS011;45649;53.014;6.600;2023-03-11T09:23:10;3.90;;;2.10;;
59770;SDS011;45649;53.014;6.600;2023-03-11T09:25:36;4.10;;;2.23;;
59770;SDS011;45649;53.014;6.600;2023-03-11T09:28:02;4.00;;;2.20;;
59770;SDS011;45649;53.014;6.600;2023-03-11T09:30:28;3.00;;;2.20;;
59770;SDS011;45649;53.014;6.600;2023-03-11T09:32:57;2.60;;;2.07;;
59770;SDS011;45649;53.014;6.600;2023-03-11T09:35:23;4.13;;;2.17;;
59770;SDS011;45649;53.014;6.600;2023-03-11T09:37:49;3.07;;;1.93;;
59770;SDS011;45649;53.014;6.600;2023-03-11T09:40:17;4.90;;;2.27;;
59770;SDS011;45649;53.014;6.600;2023-03-11T09:43:02;3.43;;;2.20;;
59770;SDS011;45649;53.014;6.600;2023-03-11T09:45:32;5.07;;;2.27;;
59770;SDS011;45649;53.014;6.600;2023-03-11T09:55:50;6.80;;;2.13;;
59770;SDS011;45649;53.014;6.600;2023-03-11T09:58:24;2.97;;;2.10;;
59770;SDS011;45649;53.014;6.600;2023-03-11T10:00:51;4.23;;;2.10;;
59770;SDS011;45649;53.014;6.600;2023-03-11T10:03:23;4.77;;;2.20;;
59770;SDS011;45649;53.014;6.600;2023-03-11T10:05:51;4.83;;;2.33;;
59770;SDS011;45649;53.014;6.600;2023-03-11T10:08:24;4.00;;;2.17;;
59770;SDS011;45649;53.014;6.600;2023-03-11T10:10:57;3.60;;;2.10;;
59770;SDS011;45649;53.014;6.600;2023-03-11T10:18:29;4.33;;;2.20;;
59770;SDS011;45649;53.014;6.600;2023-03-11T10:21:12;4.37;;;2.03;;
59770;SDS011;45649;53.014;6.600;2023-03-11T10:26:13;6.80;;;2.60;;
59770;SDS011;45649;53.014;6.600;2023-03-11T10:28:50;4.70;;;2.23;;
59770;SDS011;45649;53.014;6.600;2023-03-11T10:33:46;3.77;;;2.40;;
59770;SDS011;45649;53.014;6.600;2023-03-11T10:36:14;2.73;;;2.00;;
59770;SDS011;45649;53.014;6.600;2023-03-11T10:38:44;4.17;;;2.10;;
59770;SDS011;45649;53.014;6.600;2023-03-11T10:41:16;6.00;;;2.00;;
59770;SDS011;45649;53.014;6.600;2023-03-11T10:43:51;5.63;;;2.10;;
59770;SDS011;45649;53.014;6.600;2023-03-11T10:46:18;4.90;;;2.20;;
59770;SDS011;45649;53.014;6.600;2023-03-11T10:48:45;4.43;;;2.00;;
59770;SDS011;45649;53.014;6.600;2023-03-11T10:51:21;2.40;;;2.20;;
59770;SDS011;45649;53.014;6.600;2023-03-11T10:53:55;2.87;;;1.80;;
59770;SDS011;45649;53.014;6.600;2023-03-11T10:56:23;4.37;;;2.00;;
59770;SDS011;45649;53.014;6.600;2023-03-11T10:58:49;4.70;;;1.87;;
59770;SDS011;45649;53.014;6.600;2023-03-11T11:01:16;6.60;;;2.10;;
59770;SDS011;45649;53.014;6.600;2023-03-11T11:03:44;3.47;;;1.93;;
59770;SDS011;45649;53.014;6.600;2023-03-11T11:08:44;3.87;;;1.90;;
59770;SDS011;45649;53.014;6.600;2023-03-11T11:11:21;6.60;;;1.90;;
59770;SDS011;45649;53.014;6.600;2023-03-11T11:13:58;5.43;;;1.97;;
59770;SDS011;45649;53.014;6.600;2023-03-11T11:16:24;3.50;;;1.80;;
59770;SDS011;45649;53.014;6.600;2023-03-11T11:21:28;5.53;;;1.60;;
59770;SDS011;45649;53.014;6.600;2023-03-11T11:26:40;5.53;;;2.00;;
59770;SDS011;45649;53.014;6.600;2023-03-11T11:31:43;3.37;;;1.70;;
59770;SDS011;45649;53.014;6.600;2023-03-11T11:34:29;4.20;;;2.00;;
59770;SDS011;45649;53.014;6.600;2023-03-11T11:36:56;3.33;;;1.97;;
59770;SDS011;45649;53.014;6.600;2023-03-11T11:39:23;3.37;;;1.67;;
59770;SDS011;45649;53.014;6.600;2023-03-11T11:41:50;5.90;;;2.07;;
59770;SDS011;45649;53.014;6.600;2023-03-11T11:44:18;5.27;;;1.90;;
59770;SDS011;45649;53.014;6.600;2023-03-11T11:46:54;6.47;;;1.73;;
59770;SDS011;45649;53.014;6.600;2023-03-11T11:54:39;2.07;;;1.60;;
59770;SDS011;45649;53.014;6.600;2023-03-11T11:57:11;2.83;;;1.50;;
59770;SDS011;45649;53.014;6.600;2023-03-11T11:59:37;2.10;;;1.87;;
59770;SDS011;45649;53.014;6.600;2023-03-11T12:18:03;1.60;;;1.50;;
59770;SDS011;45649;53.014;6.600;2023-03-11T12:20:32;6.67;;;1.83;;
59770;SDS011;45649;53.014;6.600;2023-03-11T12:23:07;5.53;;;1.90;;
59770;SDS011;45649;53.014;6.600;2023-03-11T12:25:39;3.83;;;1.60;;
59770;SDS011;45649;53.014;6.600;2023-03-11T12:28:23;4.03;;;1.60;;
59770;SDS011;45649;53.014;6.600;2023-03-11T12:30:55;2.80;;;1.77;;
59770;SDS011;45649;53.014;6.600;2023-03-11T12:35:55;4.27;;;1.50;;
59770;SDS011;45649;53.014;6.600;2023-03-11T12:46:09;4.10;;;1.87;;
59770;SDS011;45649;53.014;6.600;2023-03-11T12:53:53;4.50;;;1.50;;
59770;SDS011;45649;53.014;6.600;2023-03-11T13:09:31;2.40;;;1.30;;
59770;SDS011;45649;53.014;6.600;2023-03-11T13:11:57;4.70;;;1.40;;
59770;SDS011;45649;53.014;6.600;2023-03-11T13:14:26;3.10;;;1.57;;
59770;SDS011;45649;53.014;6.600;2023-03-11T13:16:53;3.17;;;1.30;;
59770;SDS011;45649;53.014;6.600;2023-03-11T13:20:37;4.30;;;1.30;;
59770;SDS011;45649;53.014;6.600;2023-03-11T13:22:08;2.73;;;1.30;;
59770;SDS011;45649;53.014;6.600;2023-03-11T13:24:52;4.00;;;1.40;;
59770;SDS011;45649;53.014;6.600;2023-03-11T13:27:21;3.57;;;1.40;;
59770;SDS011;45649;53.014;6.600;2023-03-11T13:40:28;3.93;;;1.50;;
59770;SDS011;45649;53.014;6.600;2023-03-11T13:42:59;4.80;;;1.50;;
59770;SDS011;45649;53.014;6.600;2023-03-11T13:45:28;5.83;;;1.33;;
59770;SDS011;45649;53.014;6.600;2023-03-11T13:47:56;4.80;;;1.50;;
59770;SDS011;45649;53.014;6.600;2023-03-11T13:50:45;5.57;;;1.37;;
59770;SDS011;45649;53.014;6.600;2023-03-11T13:53:28;5.17;;;1.23;;
59770;SDS011;45649;53.014;6.600;2023-03-11T13:55:56;2.40;;;1.40;;
59770;SDS011;45649;53.014;6.600;2023-03-11T13:58:24;3.47;;;1.33;;
59770;SDS011;45649;53.014;6.600;2023-03-11T14:00:57;3.80;;;1.33;;
59770;SDS011;45649;53.014;6.600;2023-03-11T14:03:25;2.53;;;1.27;;
59770;SDS011;45649;53.014;6.600;2023-03-11T14:05:55;2.50;;;1.30;;
59770;SDS011;45649;53.014;6.600;2023-03-11T14:08:24;1.63;;;1.20;;
59770;SDS011;45649;53.014;6.600;2023-03-11T14:10:55;3.13;;;1.30;;
59770;SDS011;45649;53.014;6.600;2023-03-11T14:13:22;1.53;;;1.20;;
59770;SDS011;45649;53.014;6.600;2023-03-11T14:16:03;2.47;;;1.40;;
59770;SDS011;45649;53.014;6.600;2023-03-11T14:18:31;3.80;;;1.30;;
59770;SDS011;45649;53.014;6.600;2023-03-11T14:20:58;5.80;;;1.47;;
59770;SDS011;45649;53.014;6.600;2023-03-11T14:23:27;3.00;;;1.30;;
59770;SDS011;45649;53.014;6.600;2023-03-11T14:26:27;4.00;;;1.30;;
59770;SDS011;45649;53.014;6.600;2023-03-11T14:28:47;2.37;;;1.40;;
59770;SDS011;45649;53.014;6.600;2023-03-11T14:31:47;2.57;;;1.40;;
59770;SDS011;45649;53.014;6.600;2023-03-11T14:39:28;1.70;;;1.20;;
59770;SDS011;45649;53.014;6.600;2023-03-11T14:42:17;1.97;;;1.20;;
59770;SDS011;45649;53.014;6.600;2023-03-11T14:44:43;2.13;;;1.10;;
59770;SDS011;45649;53.014;6.600;2023-03-11T14:47:23;2.90;;;1.30;;
59770;SDS011;45649;53.014;6.600;2023-03-11T14:49:52;2.13;;;1.67;;
59770;SDS011;45649;53.014;6.600;2023-03-11T14:52:20;1.40;;;1.30;;
59770;SDS011;45649;53.014;6.600;2023-03-11T14:54:48;3.87;;;1.40;;
59770;SDS011;45649;53.014;6.600;2023-03-11T14:59:49;2.97;;;1.30;;
59770;SDS011;45649;53.014;6.600;2023-03-11T15:05:02;5.13;;;1.60;;
59770;SDS011;45649;53.014;6.600;2023-03-11T15:07:33;2.30;;;1.40;;
59770;SDS011;45649;53.014;6.600;2023-03-11T15:09:59;5.37;;;1.40;;
59770;SDS011;45649;53.014;6.600;2023-03-11T15:12:30;1.77;;;1.30;;
59770;SDS011;45649;53.014;6.600;2023-03-11T15:14:56;3.23;;;1.50;;
59770;SDS011;45649;53.014;6.600;2023-03-11T15:17:23;2.80;;;1.40;;
59770;SDS011;45649;53.014;6.600;2023-03-11T15:19:51;5.50;;;1.60;;
59770;SDS011;45649;53.014;6.600;2023-03-11T15:22:27;2.90;;;1.60;;
59770;SDS011;45649;53.014;6.600;2023-03-11T15:24:58;2.17;;;1.43;;
59770;SDS011;45649;53.014;6.600;2023-03-11T15:27:29;2.97;;;1.40;;
59770;SDS011;45649;53.014;6.600;2023-03-11T15:29:55;2.23;;;1.63;;
59770;SDS011;45649;53.014;6.600;2023-03-11T15:32:23;2.40;;;1.50;;
59770;SDS011;45649;53.014;6.600;2023-03-11T15:35:11;5.27;;;1.80;;
59770;SDS011;45649;53.014;6.600;2023-03-11T15:37:38;2.40;;;1.47;;
59770;SDS011;45649;53.014;6.600;2023-03-11T15:42:43;1.77;;;1.50;;
59770;SDS011;45649;53.014;6.600;2023-03-11T15:45:16;2.60;;;1.50;;
59770;SDS011;45649;53.014;6.600;2023-03-11T15:47:43;2.70;;;1.60;;
59770;SDS011;45649;53.014;6.600;2023-03-11T15:52:39;3.03;;;1.60;;
59770;SDS011;45649;53.014;6.600;2023-03-11T15:55:05;1.30;;;1.20;;
59770;SDS011;45649;53.014;6.600;2023-03-11T15:57:31;3.43;;;1.37;;
59770;SDS011;45649;53.014;6.600;2023-03-11T15:59:58;3.30;;;1.33;;
59770;SDS011;45649;53.014;6.600;2023-03-11T16:02:26;4.70;;;1.50;;
59770;SDS011;45649;53.014;6.600;2023-03-11T16:04:53;1.77;;;1.60;;
59770;SDS011;45649;53.014;6.600;2023-03-11T16:07:19;4.00;;;1.60;;
59770;SDS011;45649;53.014;6.600;2023-03-11T16:09:45;3.80;;;1.80;;
59770;SDS011;45649;53.014;6.600;2023-03-11T16:12:15;2.60;;;1.60;;
59770;SDS011;45649;53.014;6.600;2023-03-11T16:14:42;3.43;;;1.50;;
59770;SDS011;45649;53.014;6.600;2023-03-11T16:17:08;3.97;;;1.90;;
59770;SDS011;45649;53.014;6.600;2023-03-11T16:19:38;1.67;;;1.57;;
59770;SDS011;45649;53.014;6.600;2023-03-11T16:22:04;3.77;;;2.00;;
59770;SDS011;45649;53.014;6.600;2023-03-11T16:24:30;4.00;;;1.80;;
59770;SDS011;45649;53.014;6.600;2023-03-11T16:26:56;3.07;;;1.60;;
59770;SDS011;45649;53.014;6.600;2023-03-11T16:29:22;3.23;;;1.77;;
59770;SDS011;45649;53.014;6.600;2023-03-11T16:31:50;3.10;;;1.73;;
59770;SDS011;45649;53.014;6.600;2023-03-11T16:34:19;4.17;;;2.40;;
59770;SDS011;45649;53.014;6.600;2023-03-11T16:36:45;2.20;;;1.87;;
59770;SDS011;45649;53.014;6.600;2023-03-11T16:39:11;3.27;;;2.20;;
59770;SDS011;45649;53.014;6.600;2023-03-11T16:41:42;3.00;;;1.90;;
59770;SDS011;45649;53.014;6.600;2023-03-11T16:44:08;3.43;;;1.73;;
59770;SDS011;45649;53.014;6.600;2023-03-11T16:46:35;4.27;;;1.47;;